Time;durP1;ratioP1;P1;durP2;ratioP2;P2;SDS_P1;SDS_P2;PMS_P1;PMS_P2;Temp;Humidity;BMP_temperature;BMP_pressure;BME280_temperature;BME280_humidity;BME280_pressure;Samples;Min_cycle;Max_cycle;Signal;HPM_P1;HPM_P2
2021/06/08 05:01:58;;;;;;;22.67;15.23;;;;;;;15.61;96.96;94870.66;5232525;23;20689;-67
2021/06/08 05:04:23;;;;;;;19.92;14.40;;;;;;;15.55;96.22;94868.84;4855802;29;20029;-68
2021/06/08 05:06:53;;;;;;;20.83;14.02;;;;;;;15.45;96.39;94876.25;4855686;29;20505;-64
2021/06/08 05:09:21;;;;;;;20.65;14.88;;;;;;;15.46;96.23;94877.88;4854852;29;20102;-67
2021/06/08 05:11:54;;;;;;;25.15;15.82;;;;;;;15.51;95.42;94885.97;4873487;29;20035;-64
2021/06/08 05:14:19;;;;;;;21.13;13.18;;;;;;;15.09;95.60;94893.13;4857438;29;20394;-66
2021/06/08 05:16:45;;;;;;;27.63;17.67;;;;;;;15.39;95.85;94887.50;4871539;29;20033;-66
2021/06/08 05:19:11;;;;;;;24.13;15.07;;;;;;;15.05;95.79;94893.75;4873877;29;20423;-65
2021/06/08 05:21:37;;;;;;;21.17;13.27;;;;;;;15.41;96.43;94890.75;4856278;29;20033;-66
2021/06/08 05:24:06;;;;;;;20.73;12.90;;;;;;;15.58;94.97;94887.53;4873592;29;20459;-65
2021/06/08 05:26:31;;;;;;;22.60;13.27;;;;;;;15.04;95.64;94892.94;4873111;29;20021;-65
2021/06/08 05:28:57;;;;;;;17.70;13.23;;;;;;;15.25;95.64;94890.13;4871943;29;20541;-66
2021/06/08 05:31:22;;;;;;;19.48;13.23;;;;;;;15.53;95.12;94889.16;4857094;29;20041;-66
2021/06/08 05:33:48;;;;;;;20.55;13.63;;;;;;;15.69;94.88;94892.16;4872715;29;20077;-65
2021/06/08 05:36:13;;;;;;;22.65;13.68;;;;;;;15.70;94.88;94891.13;4873674;29;20033;-65
2021/06/08 05:38:40;;;;;;;18.20;12.68;;;;;;;15.77;94.34;94891.13;4871762;29;20498;-66
2021/06/08 05:41:06;;;;;;;19.48;13.82;;;;;;;15.32;94.02;94883.09;4873813;29;20032;-65
2021/06/08 05:43:32;;;;;;;16.65;13.05;;;;;;;15.45;95.78;94895.34;4872010;29;20125;-66
2021/06/08 05:45:58;;;;;;;20.15;13.20;;;;;;;15.95;93.73;94893.91;4874066;29;20037;-66
2021/06/08 05:48:24;;;;;;;18.27;12.68;;;;;;;16.20;92.66;94894.84;4872772;29;20407;-65
2021/06/08 05:50:52;;;;;;;16.48;11.02;;;;;;;16.24;92.86;94895.22;4873284;29;20025;-65
2021/06/08 05:53:17;;;;;;;15.60;11.07;;;;;;;16.46;92.76;94903.56;4872134;29;20100;-65
2021/06/08 05:55:45;;;;;;;13.27;10.70;;;;;;;16.24;91.77;94892.63;4874216;29;20031;-64
2021/06/08 05:58:11;;;;;;;15.13;12.63;;;;;;;16.12;92.81;94899.47;4874806;29;20051;-65
2021/06/08 06:00:36;;;;;;;14.18;12.05;;;;;;;16.02;91.39;94899.13;4873639;29;20037;-65
2021/06/08 06:03:02;;;;;;;16.88;12.20;;;;;;;16.40;92.44;94902.59;4876533;29;20105;-65
2021/06/08 06:05:27;;;;;;;16.60;11.68;;;;;;;16.62;92.26;94893.47;4859087;29;20045;-65
2021/06/08 06:07:52;;;;;;;15.38;10.32;;;;;;;16.64;90.87;94901.09;4875445;29;20463;-65
2021/06/08 06:10:18;;;;;;;14.45;11.02;;;;;;;16.64;91.90;94903.72;4862913;29;20108;-64
2021/06/08 06:12:43;;;;;;;15.15;10.88;;;;;;;16.72;91.29;94906.09;4881854;29;20033;-65
2021/06/08 06:15:09;;;;;;;14.95;11.60;;;;;;;16.66;88.94;94901.72;4848179;29;20088;-63
2021/06/08 06:17:40;;;;;;;15.65;10.80;;;;;;;16.92;89.89;94901.53;4884516;29;20024;-64
2021/06/08 06:20:14;;;;;;;15.90;11.10;;;;;;;17.06;89.11;94902.25;4859864;29;20411;-66
2021/06/08 06:22:41;;;;;;;12.07;9.55;;;;;;;17.04;87.22;94894.63;4876040;29;20029;-63
2021/06/08 06:25:10;;;;;;;17.17;11.18;;;;;;;17.13;88.00;94903.03;4876804;29;20025;-65
2021/06/08 06:27:39;;;;;;;15.75;10.35;;;;;;;17.40;87.45;94897.38;4877816;29;20156;-67
2021/06/08 06:30:07;;;;;;;11.40;10.18;;;;;;;17.50;87.22;94894.25;4873601;29;20045;-65
2021/06/08 06:32:33;;;;;;;12.38;9.40;;;;;;;17.55;87.07;94893.63;4876199;29;20048;-65
2021/06/08 06:34:59;;;;;;;14.10;10.25;;;;;;;17.66;86.97;94900.84;4874207;29;20025;-65
2021/06/08 06:37:25;;;;;;;15.88;10.77;;;;;;;17.49;86.62;94900.53;4859033;29;20029;-65
2021/06/08 06:39:55;;;;;;;12.07;10.88;;;;;;;17.14;86.42;94892.34;4873466;29;20073;-64
2021/06/08 06:42:29;;;;;;;14.18;10.73;;;;;;;17.21;86.54;94887.84;4875667;29;20066;-64
2021/06/08 06:44:54;;;;;;;12.88;9.68;;;;;;;17.10;88.12;94885.94;4857995;29;20053;-64
2021/06/08 06:47:20;;;;;;;15.65;10.32;;;;;;;17.31;87.19;94893.41;4857481;29;20051;-65
2021/06/08 06:49:45;;;;;;;13.32;10.95;;;;;;;17.36;85.82;94884.94;4874273;29;20032;-65
2021/06/08 06:52:11;;;;;;;16.65;10.88;;;;;;;17.04;85.68;94886.78;4857459;29;20036;-66
2021/06/08 06:54:36;;;;;;;15.05;10.13;;;;;;;17.19;84.10;94876.00;4875802;29;20037;-65
2021/06/08 06:57:03;;;;;;;16.85;12.10;;;;;;;16.51;87.35;94877.59;4874781;29;20085;-65
2021/06/08 06:59:29;;;;;;;14.63;11.13;;;;;;;16.98;85.81;94878.97;4874546;29;20025;-65
2021/06/08 07:01:54;;;;;;;14.02;11.05;;;;;;;18.55;84.92;94868.81;4860333;29;20050;-65
2021/06/08 07:04:22;;;;;;;12.93;9.85;;;;;;;19.09;80.04;94873.09;4856895;29;20029;-62
2021/06/08 07:06:47;;;;;;;11.98;9.80;;;;;;;18.98;79.07;94874.66;4867137;29;20371;-66
2021/06/08 07:09:13;;;;;;;13.95;10.05;;;;;;;18.21;81.59;94876.25;4872628;29;20056;-65
2021/06/08 07:11:38;;;;;;;10.93;9.90;;;;;;;18.25;82.33;94884.47;4841369;29;20196;-64
2021/06/08 07:14:04;;;;;;;12.27;9.27;;;;;;;19.11;81.88;94881.56;4875150;29;20060;-65
2021/06/08 07:16:29;;;;;;;11.85;9.55;;;;;;;19.26;79.52;94874.06;4872835;29;20047;-65
2021/06/08 07:18:55;;;;;;;11.32;9.30;;;;;;;19.46;78.17;94871.94;4873500;29;20407;-65
2021/06/08 07:21:21;;;;;;;13.05;9.70;;;;;;;19.30;78.78;94873.38;4840526;29;20029;-64
2021/06/08 07:24:09;;;;;;;15.77;9.75;;;;;;;19.50;78.34;94864.41;4864925;29;20076;-64
2021/06/08 07:26:36;;;;;;;9.82;8.88;;;;;;;19.93;76.98;94863.03;4855171;29;20025;-65
2021/06/08 07:29:02;;;;;;;10.10;8.82;;;;;;;19.70;76.33;94864.88;4872827;29;20689;-64
2021/06/08 07:31:47;;;;;;;10.13;9.07;;;;;;;20.03;73.76;94865.09;4872664;29;20052;-62
2021/06/08 07:34:33;;;;;;;11.07;9.63;;;;;;;20.20;72.33;94857.25;4864856;29;20530;-63
2021/06/08 07:36:59;;;;;;;9.13;8.23;;;;;;;20.54;74.14;94858.22;4874673;29;20119;-64
2021/06/08 07:39:29;;;;;;;10.98;9.05;;;;;;;21.12;70.05;94866.69;4855298;29;20036;-67
2021/06/08 07:42:10;;;;;;;11.07;8.80;;;;;;;19.03;75.41;94869.56;4872912;29;20410;-66
2021/06/08 07:45:00;;;;;;;10.93;8.77;;;;;;;18.82;77.83;94863.00;4872325;29;20080;-65
2021/06/08 07:47:27;;;;;;;9.77;8.73;;;;;;;20.78;72.62;94857.09;4867600;29;20093;-65
2021/06/08 07:49:52;;;;;;;9.48;8.45;;;;;;;21.85;71.18;94860.44;4857358;29;20112;-64
2021/06/08 07:52:19;;;;;;;10.80;8.68;;;;;;;21.59;68.74;94858.47;4856103;29;20040;-64
2021/06/08 07:54:45;;;;;;;9.77;8.77;;;;;;;20.47;74.02;94864.44;4873487;29;20029;-62
2021/06/08 07:57:11;;;;;;;10.55;8.50;;;;;;;21.47;72.67;94861.22;4870060;29;20036;-64
2021/06/08 07:59:36;;;;;;;9.60;8.48;;;;;;;22.75;69.39;94862.69;4856264;29;20029;-62
2021/06/08 08:02:02;;;;;;;9.18;7.70;;;;;;;23.15;64.62;94868.34;4855473;29;20052;-62
2021/06/08 08:04:34;;;;;;;8.38;7.63;;;;;;;23.40;64.81;94863.34;4872436;29;20040;-63
2021/06/08 08:07:00;;;;;;;8.32;7.45;;;;;;;22.88;64.91;94862.28;4857919;29;20029;-63
2021/06/08 08:09:25;;;;;;;12.30;7.75;;;;;;;22.42;65.61;94861.75;4854533;29;20033;-62
2021/06/08 08:11:52;;;;;;;9.63;7.35;;;;;;;21.89;67.58;94861.59;4878795;29;20047;-63
2021/06/08 08:14:17;;;;;;;8.65;6.93;;;;;;;22.87;69.29;94860.69;4880805;29;20472;-63
2021/06/08 08:16:45;;;;;;;8.98;7.43;;;;;;;22.31;66.51;94860.03;4856468;29;20041;-63
2021/06/08 08:19:10;;;;;;;9.77;7.55;;;;;;;22.99;65.30;94858.69;4871086;29;20025;-64
2021/06/08 08:21:36;;;;;;;7.60;6.90;;;;;;;22.76;66.66;94864.28;4856549;29;20028;-64
2021/06/08 08:24:01;;;;;;;13.07;7.55;;;;;;;23.73;63.52;94850.88;4872478;29;20058;-63
2021/06/08 08:26:27;;;;;;;9.60;7.50;;;;;;;22.64;67.30;94853.00;4872147;29;20029;-62
2021/06/08 08:28:58;;;;;;;9.05;6.95;;;;;;;23.36;67.65;94853.47;4873089;29;20041;-63
2021/06/08 08:31:27;;;;;;;8.05;7.25;;;;;;;23.30;65.71;94854.50;4872219;29;20088;-64
2021/06/08 08:33:52;;;;;;;7.88;7.15;;;;;;;23.15;67.19;94855.13;4873289;29;20021;-63
2021/06/08 08:36:18;;;;;;;7.20;6.55;;;;;;;23.78;63.74;94849.06;4872433;29;20036;-63
2021/06/08 08:38:43;;;;;;;10.50;8.02;;;;;;;21.74;66.61;94856.06;4871166;29;20555;-63
2021/06/08 08:41:10;;;;;;;8.40;7.55;;;;;;;22.57;68.94;94851.34;4872869;29;20029;-62
2021/06/08 08:43:35;;;;;;;8.25;7.55;;;;;;;23.55;66.60;94844.13;4871729;29;20033;-64
2021/06/08 08:46:02;;;;;;;8.82;7.63;;;;;;;24.05;66.05;94841.00;4856855;29;20092;-63
2021/06/08 08:48:27;;;;;;;8.85;7.38;;;;;;;23.78;65.48;94840.31;4851535;29;20132;-64
2021/06/08 08:50:54;;;;;;;9.18;7.25;;;;;;;23.80;65.02;94827.63;4856624;29;20440;-63
2021/06/08 08:53:20;;;;;;;8.57;7.45;;;;;;;22.86;65.68;94835.34;4870058;29;20116;-64
2021/06/08 08:55:46;;;;;;;8.75;6.85;;;;;;;23.34;66.72;94829.91;4871684;29;20479;-64
2021/06/08 08:58:11;;;;;;;9.60;7.60;;;;;;;24.34;65.28;94823.69;4869889;29;20033;-65
2021/06/08 09:00:37;;;;;;;7.30;6.60;;;;;;;24.06;64.61;94824.88;4870443;29;20108;-65
2021/06/08 09:03:04;;;;;;;9.32;8.20;;;;;;;23.56;63.11;94817.44;4870850;29;20087;-64
2021/06/08 09:05:35;;;;;;;7.95;7.25;;;;;;;24.16;63.59;94805.63;4869512;29;20037;-65
2021/06/08 09:08:00;;;;;;;7.93;7.13;;;;;;;24.02;65.04;94809.75;4869902;29;20033;-65
2021/06/08 09:10:26;;;;;;;6.97;6.38;;;;;;;24.14;61.27;94805.09;4870593;29;20056;-64
2021/06/08 09:12:51;;;;;;;7.82;6.57;;;;;;;23.41;65.37;94801.44;4872503;29;20025;-65
2021/06/08 09:15:17;;;;;;;10.88;6.70;;;;;;;23.72;64.29;94804.31;4870716;29;20495;-64
2021/06/08 09:17:43;;;;;;;10.30;6.95;;;;;;;23.91;66.11;94802.81;4872197;29;20582;-65
2021/06/08 09:20:10;;;;;;;6.95;6.35;;;;;;;24.07;62.88;94799.19;4853397;29;20029;-64
2021/06/08 09:22:48;;;;;;;7.38;6.65;;;;;;;24.53;63.37;94798.31;4872018;29;20037;-65
2021/06/08 09:25:13;;;;;;;6.70;6.03;;;;;;;24.86;66.08;94799.75;4872337;29;20041;-65
2021/06/08 09:27:39;;;;;;;8.40;7.53;;;;;;;25.23;62.80;94798.72;4871392;29;20025;-64
2021/06/08 09:30:14;;;;;;;9.85;7.72;;;;;;;25.00;62.97;94789.44;4875298;29;20422;-64
2021/06/08 09:32:39;;;;;;;7.35;6.15;;;;;;;24.89;61.95;94788.63;4875397;29;20153;-64
2021/06/08 09:35:05;;;;;;;8.95;7.32;;;;;;;24.23;62.95;94785.00;4875623;29;20029;-65
2021/06/08 09:37:36;;;;;;;11.18;7.90;;;;;;;23.85;65.57;94785.34;4874813;29;20104;-65
2021/06/08 09:40:22;;;;;;;8.18;7.38;;;;;;;24.37;64.74;94775.50;4873152;29;20097;-64
2021/06/08 09:42:49;;;;;;;8.07;7.20;;;;;;;24.13;64.50;94775.16;4874827;29;20057;-64
2021/06/08 09:45:20;;;;;;;9.90;7.57;;;;;;;23.50;66.28;94778.75;4874426;29;20119;-65
2021/06/08 09:47:56;;;;;;;9.13;7.70;;;;;;;24.25;67.37;94764.34;4874996;29;20021;-65
2021/06/08 09:50:29;;;;;;;7.43;6.70;;;;;;;25.45;61.64;94768.22;4871863;29;20029;-67
2021/06/08 09:53:16;;;;;;;7.10;6.50;;;;;;;25.61;60.87;94764.50;4857818;29;20036;-65
2021/06/08 09:55:55;;;;;;;8.18;6.93;;;;;;;25.26;62.85;94758.41;4875999;29;20029;-66
2021/06/08 09:58:21;;;;;;;10.00;6.45;;;;;;;25.06;59.34;94759.22;4874480;29;20108;-64
2021/06/08 10:01:26;;;;;;;7.03;6.38;;;;;;;25.08;60.66;94759.72;4874723;29;20035;-64
2021/06/08 10:03:52;;;;;;;10.65;6.93;;;;;;;24.57;60.63;94754.38;4874438;29;20092;-65
2021/06/08 10:06:23;;;;;;;7.72;5.93;;;;;;;25.05;58.40;94749.66;4873628;29;20017;-64
2021/06/08 10:08:52;;;;;;;6.47;5.47;;;;;;;25.26;59.15;94751.25;4872947;29;20044;-64
2021/06/08 10:11:21;;;;;;;6.28;5.70;;;;;;;24.87;56.41;94747.53;4874158;29;20048;-63
2021/06/08 10:13:47;;;;;;;6.35;5.50;;;;;;;25.01;57.48;94743.31;4875041;29;20069;-65
2021/06/08 10:16:13;;;;;;;6.10;5.50;;;;;;;24.82;56.66;94736.97;4867349;29;20105;-63
2021/06/08 10:18:42;;;;;;;4.90;4.50;;;;;;;25.39;57.05;94734.81;4856411;29;20398;-65
2021/06/08 10:21:08;;;;;;;5.40;4.85;;;;;;;25.06;56.00;94722.91;4873529;29;20412;-65
2021/06/08 10:23:33;;;;;;;5.35;4.85;;;;;;;25.31;55.69;94723.91;4872164;29;20036;-63
2021/06/08 10:26:00;;;;;;;5.22;4.75;;;;;;;25.42;59.28;94718.34;4874559;29;20470;-64
2021/06/08 10:28:27;;;;;;;4.50;4.10;;;;;;;26.34;55.15;94726.81;4872443;29;20025;-64
2021/06/08 10:30:52;;;;;;;4.93;4.47;;;;;;;25.42;54.90;94718.34;4872850;29;20057;-64
2021/06/08 10:33:21;;;;;;;7.70;4.07;;;;;;;26.18;54.20;94716.28;4872513;29;20686;-64
2021/06/08 10:35:46;;;;;;;4.95;4.13;;;;;;;26.29;54.15;94716.22;4872731;29;20057;-64
2021/06/08 10:38:12;;;;;;;4.25;3.90;;;;;;;25.79;53.20;94714.53;4873597;29;20041;-66
2021/06/08 10:40:38;;;;;;;3.70;3.40;;;;;;;26.08;53.40;94704.88;4871595;29;20040;-64
2021/06/08 10:43:04;;;;;;;4.20;3.47;;;;;;;25.43;52.51;94711.19;4874450;29;20025;-65
2021/06/08 10:45:37;;;;;;;3.45;3.15;;;;;;;25.81;50.06;94709.78;4855835;29;20544;-64
2021/06/08 10:48:07;;;;;;;3.95;3.65;;;;;;;25.36;51.58;94692.09;4857138;29;20519;-65
2021/06/08 10:50:34;;;;;;;3.50;3.25;;;;;;;26.10;49.85;94698.19;4872566;29;20056;-66
2021/06/08 10:52:59;;;;;;;4.05;3.65;;;;;;;26.04;50.03;94698.53;4873095;29;20045;-64
2021/06/08 10:55:37;;;;;;;3.78;3.15;;;;;;;26.11;49.32;94688.38;4874443;29;20104;-65
2021/06/08 10:58:03;;;;;;;3.67;3.33;;;;;;;25.46;48.28;94697.38;4871935;29;20032;-65
2021/06/08 11:00:31;;;;;;;3.25;3.05;;;;;;;26.66;48.94;94693.38;4874233;29;20029;-64
2021/06/08 11:03:01;;;;;;;4.23;3.13;;;;;;;26.99;47.14;94693.69;4870302;29;20144;-64
2021/06/08 11:05:48;;;;;;;3.65;3.35;;;;;;;26.38;47.34;94685.34;4873169;29;20037;-63
2021/06/08 11:08:13;;;;;;;3.17;2.97;;;;;;;26.96;47.30;94689.72;4871449;29;20040;-64
2021/06/08 11:10:43;;;;;;;3.30;3.10;;;;;;;27.15;45.89;94677.31;4872624;29;20029;-65
2021/06/08 11:13:09;;;;;;;3.25;2.95;;;;;;;26.89;45.83;94673.28;4874682;29;20113;-68
2021/06/08 11:15:38;;;;;;;3.42;3.13;;;;;;;27.20;46.99;94671.13;4855672;29;20033;-65
2021/06/08 11:18:36;;;;;;;3.05;2.85;;;;;;;27.00;47.80;94674.00;4871513;29;20541;-67
2021/06/08 11:21:04;;;;;;;4.82;4.40;;;;;;;26.63;52.97;94679.84;4868664;29;20076;-65
2021/06/08 11:23:33;;;;;;;4.65;4.05;;;;;;;25.67;54.70;94675.03;4872826;29;20032;-66
2021/06/08 11:25:59;;;;;;;4.47;4.03;;;;;;;24.98;55.58;94673.03;4872039;29;20041;-65
2021/06/08 11:28:46;;;;;;;4.53;4.13;;;;;;;24.05;57.88;94667.09;4872221;29;20555;-65
2021/06/08 11:31:11;;;;;;;5.03;3.88;;;;;;;23.72;58.21;94674.69;4872661;29;20399;-63
2021/06/08 11:33:38;;;;;;;3.80;3.50;;;;;;;24.08;58.66;94679.03;4871467;29;20037;-65
2021/06/08 11:36:19;;;;;;;7.07;4.07;;;;;;;24.41;56.60;94673.28;4873506;29;20039;-67
2021/06/08 11:38:55;;;;;;;3.33;3.13;;;;;;;24.23;56.11;94681.75;4872450;29;20081;-65
2021/06/08 11:41:20;;;;;;;3.25;2.95;;;;;;;24.43;56.04;94673.84;4871198;29;20033;-64
2021/06/08 11:44:00;;;;;;;3.08;2.88;;;;;;;24.61;55.95;94665.38;4873151;29;20116;-68
2021/06/08 11:46:33;;;;;;;4.45;4.05;;;;;;;24.83;56.31;94674.91;4871953;29;20065;-66
2021/06/08 11:49:17;;;;;;;4.43;3.70;;;;;;;24.66;56.78;94665.34;4873469;29;20033;-68
2021/06/08 11:51:50;;;;;;;3.72;3.42;;;;;;;24.90;54.53;94663.00;4873909;29;20032;-64
2021/06/08 11:54:18;;;;;;;3.95;3.60;;;;;;;24.84;56.82;94660.63;4870320;29;20037;-64
2021/06/08 11:56:55;;;;;;;3.45;3.15;;;;;;;24.65;56.68;94661.13;4871785;29;20073;-63
2021/06/08 11:59:31;;;;;;;6.05;2.85;;;;;;;24.65;56.34;94658.47;4869501;29;20629;-66
2021/06/08 12:02:00;;;;;;;5.43;3.20;;;;;;;24.58;56.37;94660.59;4854821;29;20045;-64
2021/06/08 12:04:27;;;;;;;13.60;4.47;;;;;;;23.85;58.61;94659.13;4870875;29;20210;-66
2021/06/08 12:07:08;;;;;;;4.25;3.70;;;;;;;23.29;59.03;94671.28;4870228;29;20048;-63
2021/06/08 12:09:35;;;;;;;5.35;4.15;;;;;;;22.99;57.68;94669.22;4871969;29;20036;-64
2021/06/08 12:12:10;;;;;;;6.85;3.88;;;;;;;23.67;56.58;94661.41;4872337;29;20025;-63
2021/06/08 12:14:36;;;;;;;3.60;3.30;;;;;;;23.96;57.59;94663.38;4873593;29;20025;-63
2021/06/08 12:17:02;;;;;;;3.80;3.50;;;;;;;23.91;57.71;94660.72;4872675;29;20100;-64
2021/06/08 12:19:34;;;;;;;3.88;3.28;;;;;;;24.17;55.28;94653.69;4870880;29;20037;-63
2021/06/08 12:22:17;;;;;;;2.90;2.60;;;;;;;23.77;55.22;94648.22;4873180;29;20025;-63
2021/06/08 12:24:52;;;;;;;5.18;3.40;;;;;;;23.99;55.34;94648.81;4871651;29;20123;-64
2021/06/08 12:27:18;;;;;;;3.72;3.15;;;;;;;24.21;56.14;94649.41;4872527;29;20411;-66
2021/06/08 12:29:52;;;;;;;4.53;3.08;;;;;;;23.63;55.99;94652.44;4855861;29;20045;-62
2021/06/08 12:32:18;;;;;;;3.55;3.13;;;;;;;22.92;58.77;94642.25;4878687;29;20064;-62
2021/06/08 12:34:48;;;;;;;3.90;3.50;;;;;;;22.71;57.96;94635.22;4879556;29;20096;-62
2021/06/08 12:37:24;;;;;;;2.78;2.58;;;;;;;22.48;57.85;94632.91;4872278;29;20028;-64
2021/06/08 12:39:54;;;;;;;3.15;2.95;;;;;;;22.49;57.96;94624.75;4875981;29;20045;-63
2021/06/08 12:42:21;;;;;;;3.60;3.30;;;;;;;22.32;57.81;94628.56;4879353;29;20036;-63
2021/06/08 12:44:47;;;;;;;3.03;2.83;;;;;;;22.17;58.51;94629.22;4877523;29;20032;-62
2021/06/08 12:47:22;;;;;;;3.30;3.08;;;;;;;22.14;57.24;94629.72;4876352;29;20052;-64
2021/06/08 12:49:48;;;;;;;3.42;3.15;;;;;;;22.33;58.90;94625.66;4871110;29;20040;-63
2021/06/08 12:52:19;;;;;;;3.65;3.35;;;;;;;22.21;58.06;94625.03;4872805;29;20044;-66
2021/06/08 12:54:59;;;;;;;4.05;3.75;;;;;;;22.15;59.13;94639.25;4880992;29;20041;-65
2021/06/08 12:57:25;;;;;;;4.80;3.70;;;;;;;22.12;58.29;94638.94;4873617;29;20037;-66
2021/06/08 12:59:52;;;;;;;3.78;3.30;;;;;;;22.05;57.48;94655.78;4871503;29;20074;-67
2021/06/08 13:02:17;;;;;;;2.75;2.55;;;;;;;22.09;56.95;94661.31;4872285;29;20056;-65
2021/06/08 13:04:45;;;;;;;3.33;3.03;;;;;;;22.29;57.87;94669.44;4857646;29;20025;-65
2021/06/08 13:07:17;;;;;;;2.92;2.65;;;;;;;22.00;59.51;94681.28;4858956;29;20497;-64
2021/06/08 13:09:43;;;;;;;4.88;2.97;;;;;;;22.00;61.12;94676.81;4876972;29;20036;-65
2021/06/08 13:12:10;;;;;;;2.95;2.75;;;;;;;21.58;58.51;94688.19;4875227;29;20028;-66
2021/06/08 13:14:36;;;;;;;3.35;2.75;;;;;;;21.54;59.88;94698.41;4875862;29;20029;-64
2021/06/08 13:17:23;;;;;;;3.10;2.83;;;;;;;21.64;64.88;94701.16;4874944;29;20037;-65
2021/06/08 13:19:48;;;;;;;3.53;3.22;;;;;;;20.21;69.10;94704.47;4875887;29;20400;-71
2021/06/08 13:22:16;;;;;;;5.00;3.70;;;;;;;19.84;71.59;94708.50;4875816;29;20137;-69
2021/06/08 13:24:43;;;;;;;4.85;3.60;;;;;;;19.75;73.05;94704.63;4875174;29;20028;-66
2021/06/08 13:27:12;;;;;;;2.72;2.53;;;;;;;19.83;72.14;94704.28;4876558;29;20033;-68
2021/06/08 13:29:38;;;;;;;;;;;;;;;20.07;70.42;94700.50;4874758;29;20068;-66
2021/06/08 13:32:03;;;;;;;2.47;2.28;;;;;;;19.94;68.92;94696.34;4876763;29;20031;-67
2021/06/08 13:34:30;;;;;;;2.13;1.98;;;;;;;19.64;68.80;94694.97;4874812;29;20037;-67
2021/06/08 13:36:58;;;;;;;2.38;2.17;;;;;;;19.51;70.26;94709.16;4874417;29;20036;-65
2021/06/08 13:39:24;;;;;;;2.70;2.42;;;;;;;19.26;70.31;94708.59;4874727;29;20036;-68
2021/06/08 13:41:53;;;;;;;3.00;2.80;;;;;;;19.06;71.06;94708.94;4860488;29;20065;-68
2021/06/08 13:44:19;;;;;;;;;;;;;;;18.93;71.88;94714.44;4874199;29;20028;-65
2021/06/08 13:46:57;;;;;;;3.13;2.50;;;;;;;18.74;72.63;94723.44;4873926;29;20353;-67
2021/06/08 13:49:58;;;;;;;6.72;2.72;;;;;;;18.83;72.72;94722.88;4872189;29;20043;-68
2021/06/08 13:53:03;;;;;;;2.92;2.65;;;;;;;18.31;75.03;94734.13;4854506;29;20559;-66
2021/06/08 13:55:34;;;;;;;2.28;2.08;;;;;;;18.36;76.52;94742.13;4873989;29;20564;-67
2021/06/08 14:01:22;;;;;;;2.58;2.38;;;;;;;18.31;79.67;94745.41;4869331;29;20095;-65
2021/06/08 14:04:08;;;;;;;2.42;2.22;;;;;;;18.48;80.28;94750.84;4884394;29;20318;-64
2021/06/08 14:06:38;;;;;;;3.10;2.80;;;;;;;17.57;83.63;94752.81;4884749;29;20049;-61
2021/06/08 14:09:08;;;;;;;3.70;2.60;;;;;;;16.73;88.49;94730.63;4856499;29;20052;-64
2021/06/08 14:11:34;;;;;;;3.92;2.72;;;;;;;16.27;92.91;94715.28;4872989;29;20452;-68
2021/06/08 14:13:59;;;;;;;3.20;2.90;;;;;;;16.46;92.53;94708.28;4874361;29;20521;-69
2021/06/08 14:16:26;;;;;;;3.53;3.20;;;;;;;16.75;90.82;94706.88;4872646;29;20032;-68
2021/06/08 14:18:52;;;;;;;3.53;3.20;;;;;;;17.08;88.18;94706.59;4874068;29;20529;-61
2021/06/08 14:21:17;;;;;;;3.33;3.03;;;;;;;17.82;89.81;94708.97;4872855;29;20021;-60
2021/06/08 14:23:43;;;;;;;3.22;2.97;;;;;;;18.06;87.52;94702.81;4872791;29;20037;-60
2021/06/08 14:26:12;;;;;;;3.10;2.80;;;;;;;18.74;86.17;94697.19;4870614;29;20119;-61
2021/06/08 14:28:37;;;;;;;4.63;2.85;;;;;;;19.26;84.98;94684.97;4873819;29;20410;-62
2021/06/08 14:31:03;;;;;;;5.95;2.50;;;;;;;19.27;82.34;94687.34;4874162;29;20037;-62
2021/06/08 14:33:29;;;;;;;2.50;2.30;;;;;;;19.58;80.50;94686.19;4873195;29;20610;-61
2021/06/08 14:35:54;;;;;;;2.47;2.28;;;;;;;19.49;82.97;94694.66;4874686;29;20029;-62
2021/06/08 14:38:20;;;;;;;5.35;3.63;;;;;;;19.10;83.85;94693.53;4873171;29;20105;-63
2021/06/08 14:40:45;;;;;;;5.68;4.15;;;;;;;19.42;84.17;94695.56;4874297;29;20041;-63
2021/06/08 14:43:11;;;;;;;3.97;3.55;;;;;;;19.67;82.94;94686.63;4872199;29;20081;-61
2021/06/08 14:45:36;;;;;;;4.60;3.92;;;;;;;19.51;81.35;94688.16;4874315;29;20021;-61
2021/06/08 14:48:02;;;;;;;3.65;3.10;;;;;;;19.04;79.06;94689.97;4865944;29;20033;-61
2021/06/08 14:50:27;;;;;;;3.45;3.13;;;;;;;18.97;79.79;94691.94;4871269;29;20509;-62
2021/06/08 14:52:53;;;;;;;3.60;3.20;;;;;;;19.07;83.69;94689.53;4877065;29;20075;-62
2021/06/08 14:55:18;;;;;;;3.83;3.00;;;;;;;19.12;83.83;94684.41;4882130;29;20534;-62
2021/06/08 14:57:44;;;;;;;3.05;2.75;;;;;;;19.14;81.66;94679.72;4892613;29;20136;-64
2021/06/08 15:00:10;;;;;;;3.08;2.80;;;;;;;19.23;81.11;94680.94;4892237;29;20533;-63
2021/06/08 15:02:35;;;;;;;2.83;2.63;;;;;;;19.00;82.43;94673.13;4893428;29;20067;-62
2021/06/08 15:05:01;;;;;;;2.70;2.50;;;;;;;18.85;83.04;94662.25;4891781;29;20406;-63
2021/06/08 15:07:26;;;;;;;4.93;2.58;;;;;;;18.89;81.30;94658.97;4890800;29;20075;-63
2021/06/08 15:09:51;;;;;;;2.60;2.38;;;;;;;18.83;80.65;94657.25;4872032;29;20553;-63
2021/06/08 15:12:17;;;;;;;2.92;2.63;;;;;;;19.11;80.31;94653.91;4856643;29;20040;-63
2021/06/08 15:14:43;;;;;;;3.20;2.90;;;;;;;19.29;80.17;94647.72;4874538;29;20037;-66
2021/06/08 15:17:09;;;;;;;3.22;2.92;;;;;;;19.14;82.40;94605.38;4873508;29;20032;-64
2021/06/08 15:19:35;;;;;;;3.58;3.28;;;;;;;19.62;83.05;94661.03;4875343;29;20479;-64
2021/06/08 15:22:05;;;;;;;3.28;3.08;;;;;;;19.76;82.45;94661.56;4872771;29;20037;-65
2021/06/08 15:24:31;;;;;;;3.55;3.25;;;;;;;19.96;82.59;94660.09;4874746;29;20039;-65
2021/06/08 15:26:56;;;;;;;3.55;3.25;;;;;;;19.99;82.11;94659.63;4871255;29;20025;-65
2021/06/08 15:29:21;;;;;;;4.22;3.35;;;;;;;20.05;83.08;94668.41;4872986;29;20117;-65
2021/06/08 15:31:47;;;;;;;8.02;4.95;;;;;;;20.17;82.24;94671.78;4872436;29;20044;-65
2021/06/08 15:34:12;;;;;;;5.75;4.60;;;;;;;20.19;81.64;94672.34;4873370;29;20040;-65
2021/06/08 15:36:38;;;;;;;3.88;3.47;;;;;;;20.16;79.57;94672.81;4881784;29;20048;-66
2021/06/08 15:39:05;;;;;;;4.20;3.80;;;;;;;20.41;79.91;94673.28;4881955;29;20648;-65
2021/06/08 15:41:30;;;;;;;3.88;3.45;;;;;;;20.57;81.20;94676.97;4879309;29;20021;-65
2021/06/08 15:43:56;;;;;;;3.47;3.00;;;;;;;20.47;80.59;94688.13;4881680;29;20028;-65
2021/06/08 15:46:22;;;;;;;3.20;2.50;;;;;;;20.37;78.38;94687.94;4891393;29;20025;-64
2021/06/08 15:48:48;;;;;;;3.50;3.20;;;;;;;19.84;75.31;94676.97;4892150;29;20033;-63
2021/06/08 15:51:13;;;;;;;3.88;2.92;;;;;;;19.82;76.76;94677.19;4892316;29;20032;-62
2021/06/08 15:53:39;;;;;;;3.00;2.55;;;;;;;19.60;77.71;94670.97;4892007;29;20029;-65
2021/06/08 15:56:04;;;;;;;3.35;3.05;;;;;;;19.57;77.47;94674.06;4878966;29;20036;-63
2021/06/08 15:58:30;;;;;;;3.03;2.72;;;;;;;19.43;78.06;94665.66;4872725;29;20040;-67
2021/06/08 16:00:55;;;;;;;2.60;2.40;;;;;;;19.20;78.85;94665.66;4870005;29;20021;-68
2021/06/08 16:03:21;;;;;;;3.03;2.72;;;;;;;19.11;76.87;94659.16;4872626;29;20528;-64
2021/06/08 16:05:47;;;;;;;3.10;2.80;;;;;;;19.21;78.07;94661.19;4869432;29;20029;-65
2021/06/08 16:08:12;;;;;;;3.10;2.88;;;;;;;19.16;78.40;94659.28;4871493;29;20045;-65
2021/06/08 16:10:40;;;;;;;2.72;2.53;;;;;;;19.26;77.00;94658.69;4871919;29;20041;-76
2021/06/08 16:13:06;;;;;;;5.53;2.95;;;;;;;19.43;80.92;94664.84;4870672;29;20478;-76
2021/06/08 16:15:31;;;;;;;3.13;2.83;;;;;;;19.51;83.04;94672.38;4873098;29;20025;-74
2021/06/08 16:17:57;;;;;;;3.00;2.80;;;;;;;19.41;80.99;94674.78;4870842;29;20080;-72
2021/06/08 16:20:22;;;;;;;3.78;2.80;;;;;;;19.27;78.98;94671.59;4873278;29;20029;-73
2021/06/08 16:22:48;;;;;;;3.47;2.20;;;;;;;19.13;80.22;94683.38;4871402;29;20092;-74
2021/06/08 16:25:13;;;;;;;2.85;2.60;;;;;;;19.09;79.91;94669.09;4872166;29;20076;-72
2021/06/08 16:27:39;;;;;;;2.47;2.28;;;;;;;19.21;77.83;94671.72;4856131;29;20029;-75
2021/06/08 16:30:05;;;;;;;5.35;2.70;;;;;;;19.12;79.24;94678.34;4856256;29;20115;-77
2021/06/08 16:32:31;;;;;;;3.05;2.10;;;;;;;18.83;75.17;94672.19;4856361;29;20028;-73
2021/06/08 16:34:56;;;;;;;2.30;2.10;;;;;;;18.68;77.10;94671.84;4872700;29;20332;-73
2021/06/08 16:37:22;;;;;;;2.00;1.90;;;;;;;18.52;76.55;94669.91;4873194;29;20528;-74
2021/06/08 16:39:47;;;;;;;3.63;2.47;;;;;;;18.42;75.60;94670.44;4871211;29;20037;-72